sensor_id;sensor_type;location;lat;lon;timestamp;P1;durP1;ratioP1;P2;durP2;ratioP2
17662;SDS011;8950;56.892;15.090;2022-10-16T00:00:42;12.75;;;11.55;;
17662;SDS011;8950;56.892;15.090;2022-10-16T00:03:09;11.77;;;10.60;;
17662;SDS011;8950;56.892;15.090;2022-10-16T00:05:40;12.20;;;11.05;;
17662;SDS011;8950;56.892;15.090;2022-10-16T00:08:07;12.30;;;11.13;;
17662;SDS011;8950;56.892;15.090;2022-10-16T00:10:33;12.30;;;10.95;;
17662;SDS011;8950;56.892;15.090;2022-10-16T00:13:00;11.82;;;10.73;;
17662;SDS011;8950;56.892;15.090;2022-10-16T00:15:26;11.32;;;10.23;;
17662;SDS011;8950;56.892;15.090;2022-10-16T00:17:53;12.10;;;11.00;;
17662;SDS011;8950;56.892;15.090;2022-10-16T00:20:19;10.90;;;9.90;;
17662;SDS011;8950;56.892;15.090;2022-10-16T00:22:47;11.20;;;10.15;;
17662;SDS011;8950;56.892;15.090;2022-10-16T00:25:13;11.82;;;10.75;;
17662;SDS011;8950;56.892;15.090;2022-10-16T00:27:39;10.57;;;9.57;;
17662;SDS011;8950;56.892;15.090;2022-10-16T00:30:06;10.10;;;9.20;;
17662;SDS011;8950;56.892;15.090;2022-10-16T00:32:34;10.48;;;9.55;;
17662;SDS011;8950;56.892;15.090;2022-10-16T00:35:00;10.07;;;9.20;;
17662;SDS011;8950;56.892;15.090;2022-10-16T00:37:28;10.88;;;9.77;;
17662;SDS011;8950;56.892;15.090;2022-10-16T00:39:56;11.27;;;9.73;;
17662;SDS011;8950;56.892;15.090;2022-10-16T00:42:23;11.05;;;9.95;;
17662;SDS011;8950;56.892;15.090;2022-10-16T00:44:50;11.15;;;10.23;;
17662;SDS011;8950;56.892;15.090;2022-10-16T00:47:19;10.40;;;9.40;;
17662;SDS011;8950;56.892;15.090;2022-10-16T00:49:47;11.38;;;10.27;;
17662;SDS011;8950;56.892;15.090;2022-10-16T00:52:15;10.65;;;9.57;;
17662;SDS011;8950;56.892;15.090;2022-10-16T00:54:42;11.50;;;10.27;;
17662;SDS011;8950;56.892;15.090;2022-10-16T00:57:09;11.88;;;10.73;;
17662;SDS011;8950;56.892;15.090;2022-10-16T00:59:37;11.82;;;10.70;;
17662;SDS011;8950;56.892;15.090;2022-10-16T01:02:04;11.27;;;10.18;;
17662;SDS011;8950;56.892;15.090;2022-10-16T01:04:32;11.43;;;10.40;;
17662;SDS011;8950;56.892;15.090;2022-10-16T01:07:02;11.20;;;10.25;;
17662;SDS011;8950;56.892;15.090;2022-10-16T01:09:34;12.00;;;10.88;;
17662;SDS011;8950;56.892;15.090;2022-10-16T01:12:05;11.13;;;10.23;;
17662;SDS011;8950;56.892;15.090;2022-10-16T01:14:37;11.90;;;10.80;;
17662;SDS011;8950;56.892;15.090;2022-10-16T01:17:06;12.52;;;11.32;;
17662;SDS011;8950;56.892;15.090;2022-10-16T01:19:38;12.93;;;11.82;;
17662;SDS011;8950;56.892;15.090;2022-10-16T01:22:10;13.48;;;12.27;;
17662;SDS011;8950;56.892;15.090;2022-10-16T01:24:38;12.23;;;11.13;;
17662;SDS011;8950;56.892;15.090;2022-10-16T01:27:08;13.75;;;12.45;;
17662;SDS011;8950;56.892;15.090;2022-10-16T01:29:36;13.20;;;11.88;;
17662;SDS011;8950;56.892;15.090;2022-10-16T01:32:08;13.80;;;12.45;;
17662;SDS011;8950;56.892;15.090;2022-10-16T01:34:37;13.77;;;12.57;;
17662;SDS011;8950;56.892;15.090;2022-10-16T01:37:05;12.73;;;11.55;;
17662;SDS011;8950;56.892;15.090;2022-10-16T01:39:34;13.02;;;11.93;;
17662;SDS011;8950;56.892;15.090;2022-10-16T01:42:03;12.90;;;11.77;;
17662;SDS011;8950;56.892;15.090;2022-10-16T01:44:32;13.38;;;12.18;;
17662;SDS011;8950;56.892;15.090;2022-10-16T01:46:59;13.95;;;11.88;;
17662;SDS011;8950;56.892;15.090;2022-10-16T01:49:26;13.75;;;12.55;;
17662;SDS011;8950;56.892;15.090;2022-10-16T01:51:55;13.13;;;12.00;;
17662;SDS011;8950;56.892;15.090;2022-10-16T01:54:22;13.18;;;11.98;;
17662;SDS011;8950;56.892;15.090;2022-10-16T01:56:49;13.52;;;12.27;;
17662;SDS011;8950;56.892;15.090;2022-10-16T01:59:17;13.32;;;12.13;;
17662;SDS011;8950;56.892;15.090;2022-10-16T02:01:47;14.20;;;12.80;;
17662;SDS011;8950;56.892;15.090;2022-10-16T02:04:20;13.48;;;12.18;;
17662;SDS011;8950;56.892;15.090;2022-10-16T02:06:47;14.13;;;12.80;;
17662;SDS011;8950;56.892;15.090;2022-10-16T02:09:13;12.50;;;11.32;;
17662;SDS011;8950;56.892;15.090;2022-10-16T02:11:41;12.93;;;11.77;;
17662;SDS011;8950;56.892;15.090;2022-10-16T02:14:08;11.77;;;10.68;;
17662;SDS011;8950;56.892;15.090;2022-10-16T02:16:35;12.77;;;11.63;;
17662;SDS011;8950;56.892;15.090;2022-10-16T02:19:03;11.68;;;10.65;;
17662;SDS011;8950;56.892;15.090;2022-10-16T02:21:32;11.70;;;10.60;;
17662;SDS011;8950;56.892;15.090;2022-10-16T02:24:00;11.90;;;10.82;;
17662;SDS011;8950;56.892;15.090;2022-10-16T02:26:30;11.65;;;10.52;;
17662;SDS011;8950;56.892;15.090;2022-10-16T02:28:59;10.90;;;9.80;;
17662;SDS011;8950;56.892;15.090;2022-10-16T02:31:30;10.80;;;9.70;;
17662;SDS011;8950;56.892;15.090;2022-10-16T02:33:59;11.40;;;10.38;;
17662;SDS011;8950;56.892;15.090;2022-10-16T02:36:27;10.07;;;9.18;;
17662;SDS011;8950;56.892;15.090;2022-10-16T02:38:53;11.15;;;10.18;;
17662;SDS011;8950;56.892;15.090;2022-10-16T02:41:20;9.70;;;8.80;;
17662;SDS011;8950;56.892;15.090;2022-10-16T02:43:46;10.13;;;8.70;;
17662;SDS011;8950;56.892;15.090;2022-10-16T02:46:14;9.25;;;8.43;;
17662;SDS011;8950;56.892;15.090;2022-10-16T02:48:40;9.98;;;9.07;;
17662;SDS011;8950;56.892;15.090;2022-10-16T02:51:06;9.35;;;8.52;;
17662;SDS011;8950;56.892;15.090;2022-10-16T02:53:34;9.52;;;8.68;;
17662;SDS011;8950;56.892;15.090;2022-10-16T02:56:01;9.18;;;8.38;;
17662;SDS011;8950;56.892;15.090;2022-10-16T02:58:27;9.15;;;8.45;;
17662;SDS011;8950;56.892;15.090;2022-10-16T03:00:54;8.77;;;8.07;;
17662;SDS011;8950;56.892;15.090;2022-10-16T03:03:20;9.02;;;8.23;;
17662;SDS011;8950;56.892;15.090;2022-10-16T03:05:47;8.50;;;7.68;;
17662;SDS011;8950;56.892;15.090;2022-10-16T03:08:13;9.73;;;8.73;;
17662;SDS011;8950;56.892;15.090;2022-10-16T03:10:41;8.85;;;8.15;;
17662;SDS011;8950;56.892;15.090;2022-10-16T03:13:07;8.73;;;7.95;;
17662;SDS011;8950;56.892;15.090;2022-10-16T03:15:34;8.73;;;8.02;;
17662;SDS011;8950;56.892;15.090;2022-10-16T03:18:00;8.93;;;8.13;;
17662;SDS011;8950;56.892;15.090;2022-10-16T03:20:27;8.20;;;7.43;;
17662;SDS011;8950;56.892;15.090;2022-10-16T03:22:53;8.60;;;7.80;;
17662;SDS011;8950;56.892;15.090;2022-10-16T03:25:20;8.05;;;7.25;;
17662;SDS011;8950;56.892;15.090;2022-10-16T03:27:48;7.78;;;7.15;;
17662;SDS011;8950;56.892;15.090;2022-10-16T03:30:14;8.55;;;7.25;;
17662;SDS011;8950;56.892;15.090;2022-10-16T03:32:41;8.38;;;7.47;;
17662;SDS011;8950;56.892;15.090;2022-10-16T03:35:08;7.70;;;7.00;;
17662;SDS011;8950;56.892;15.090;2022-10-16T03:37:34;7.88;;;7.28;;
17662;SDS011;8950;56.892;15.090;2022-10-16T03:40:01;7.97;;;7.28;;
17662;SDS011;8950;56.892;15.090;2022-10-16T03:42:27;7.95;;;7.25;;
17662;SDS011;8950;56.892;15.090;2022-10-16T03:44:55;7.25;;;6.65;;
17662;SDS011;8950;56.892;15.090;2022-10-16T03:47:21;7.10;;;6.50;;
17662;SDS011;8950;56.892;15.090;2022-10-16T03:49:48;7.78;;;7.07;;
17662;SDS011;8950;56.892;15.090;2022-10-16T03:52:15;6.72;;;6.13;;
17662;SDS011;8950;56.892;15.090;2022-10-16T03:54:41;6.50;;;5.80;;
17662;SDS011;8950;56.892;15.090;2022-10-16T03:57:08;5.68;;;5.28;;
17662;SDS011;8950;56.892;15.090;2022-10-16T03:59:34;6.10;;;5.63;;
17662;SDS011;8950;56.892;15.090;2022-10-16T04:02:02;6.00;;;5.50;;
17662;SDS011;8950;56.892;15.090;2022-10-16T04:04:28;6.60;;;6.00;;
17662;SDS011;8950;56.892;15.090;2022-10-16T04:06:55;6.32;;;5.70;;
17662;SDS011;8950;56.892;15.090;2022-10-16T04:09:21;7.03;;;5.63;;
17662;SDS011;8950;56.892;15.090;2022-10-16T04:11:48;6.10;;;5.60;;
17662;SDS011;8950;56.892;15.090;2022-10-16T04:14:14;6.32;;;4.88;;
17662;SDS011;8950;56.892;15.090;2022-10-16T04:16:41;6.03;;;5.53;;
17662;SDS011;8950;56.892;15.090;2022-10-16T04:19:08;6.68;;;5.97;;
17662;SDS011;8950;56.892;15.090;2022-10-16T04:21:35;6.50;;;5.82;;
17662;SDS011;8950;56.892;15.090;2022-10-16T04:24:02;6.25;;;5.75;;
17662;SDS011;8950;56.892;15.090;2022-10-16T04:26:28;6.63;;;6.03;;
17662;SDS011;8950;56.892;15.090;2022-10-16T04:28:54;6.65;;;6.03;;
17662;SDS011;8950;56.892;15.090;2022-10-16T04:31:21;6.43;;;5.85;;
17662;SDS011;8950;56.892;15.090;2022-10-16T04:33:47;6.97;;;6.38;;
17662;SDS011;8950;56.892;15.090;2022-10-16T04:36:15;6.80;;;6.20;;
17662;SDS011;8950;56.892;15.090;2022-10-16T04:38:41;6.55;;;5.95;;
17662;SDS011;8950;56.892;15.090;2022-10-16T04:41:08;6.43;;;5.93;;
17662;SDS011;8950;56.892;15.090;2022-10-16T04:43:34;6.22;;;5.63;;
17662;SDS011;8950;56.892;15.090;2022-10-16T04:46:00;6.65;;;6.10;;
17662;SDS011;8950;56.892;15.090;2022-10-16T04:48:29;6.63;;;6.03;;
17662;SDS011;8950;56.892;15.090;2022-10-16T04:50:56;6.85;;;6.25;;
17662;SDS011;8950;56.892;15.090;2022-10-16T04:53:23;7.10;;;6.30;;
17662;SDS011;8950;56.892;15.090;2022-10-16T04:55:50;7.47;;;6.78;;
17662;SDS011;8950;56.892;15.090;2022-10-16T04:58:16;7.13;;;6.53;;
17662;SDS011;8950;56.892;15.090;2022-10-16T05:00:43;7.15;;;6.55;;
17662;SDS011;8950;56.892;15.090;2022-10-16T05:03:11;7.22;;;6.53;;
17662;SDS011;8950;56.892;15.090;2022-10-16T05:05:41;6.90;;;6.30;;
17662;SDS011;8950;56.892;15.090;2022-10-16T05:08:08;7.53;;;6.82;;
17662;SDS011;8950;56.892;15.090;2022-10-16T05:10:35;7.50;;;6.80;;
17662;SDS011;8950;56.892;15.090;2022-10-16T05:13:02;6.95;;;6.35;;
17662;SDS011;8950;56.892;15.090;2022-10-16T05:15:28;7.75;;;6.97;;
17662;SDS011;8950;56.892;15.090;2022-10-16T05:17:55;7.13;;;6.55;;
17662;SDS011;8950;56.892;15.090;2022-10-16T05:20:21;6.47;;;5.97;;
17662;SDS011;8950;56.892;15.090;2022-10-16T05:22:48;7.13;;;6.53;;
17662;SDS011;8950;56.892;15.090;2022-10-16T05:25:14;6.80;;;5.97;;
17662;SDS011;8950;56.892;15.090;2022-10-16T05:27:42;8.43;;;6.55;;
17662;SDS011;8950;56.892;15.090;2022-10-16T05:30:09;6.97;;;6.38;;
17662;SDS011;8950;56.892;15.090;2022-10-16T05:32:35;6.60;;;6.00;;
17662;SDS011;8950;56.892;15.090;2022-10-16T05:35:02;8.10;;;6.72;;
17662;SDS011;8950;56.892;15.090;2022-10-16T05:37:28;7.65;;;6.95;;
17662;SDS011;8950;56.892;15.090;2022-10-16T05:39:55;7.93;;;6.32;;
17662;SDS011;8950;56.892;15.090;2022-10-16T05:42:21;6.93;;;6.00;;
17662;SDS011;8950;56.892;15.090;2022-10-16T05:44:49;7.97;;;6.50;;
17662;SDS011;8950;56.892;15.090;2022-10-16T05:47:15;10.60;;;6.75;;
17662;SDS011;8950;56.892;15.090;2022-10-16T05:49:42;6.95;;;6.25;;
17662;SDS011;8950;56.892;15.090;2022-10-16T05:52:08;7.20;;;6.57;;
17662;SDS011;8950;56.892;15.090;2022-10-16T05:54:34;7.53;;;6.80;;
17662;SDS011;8950;56.892;15.090;2022-10-16T05:57:01;6.10;;;5.60;;
17662;SDS011;8950;56.892;15.090;2022-10-16T05:59:27;7.40;;;6.78;;
17662;SDS011;8950;56.892;15.090;2022-10-16T06:01:55;7.15;;;6.45;;
17662;SDS011;8950;56.892;15.090;2022-10-16T06:04:22;10.15;;;7.03;;
17662;SDS011;8950;56.892;15.090;2022-10-16T06:06:48;6.82;;;6.20;;
17662;SDS011;8950;56.892;15.090;2022-10-16T06:09:14;7.13;;;6.53;;
17662;SDS011;8950;56.892;15.090;2022-10-16T06:11:41;7.47;;;6.68;;
17662;SDS011;8950;56.892;15.090;2022-10-16T06:14:07;8.60;;;6.82;;
17662;SDS011;8950;56.892;15.090;2022-10-16T06:16:34;7.35;;;6.65;;
17662;SDS011;8950;56.892;15.090;2022-10-16T06:19:02;7.32;;;6.63;;
17662;SDS011;8950;56.892;15.090;2022-10-16T06:21:31;6.80;;;6.18;;
17662;SDS011;8950;56.892;15.090;2022-10-16T06:23:57;8.05;;;6.53;;
17662;SDS011;8950;56.892;15.090;2022-10-16T06:26:25;6.15;;;5.65;;
17662;SDS011;8950;56.892;15.090;2022-10-16T06:28:53;8.65;;;6.10;;
17662;SDS011;8950;56.892;15.090;2022-10-16T06:31:20;6.18;;;5.57;;
17662;SDS011;8950;56.892;15.090;2022-10-16T06:33:49;6.03;;;5.50;;
17662;SDS011;8950;56.892;15.090;2022-10-16T06:36:17;5.82;;;5.28;;
17662;SDS011;8950;56.892;15.090;2022-10-16T06:38:44;6.40;;;5.80;;
17662;SDS011;8950;56.892;15.090;2022-10-16T06:41:11;6.05;;;5.45;;
17662;SDS011;8950;56.892;15.090;2022-10-16T06:43:37;5.85;;;5.28;;
17662;SDS011;8950;56.892;15.090;2022-10-16T06:46:05;5.97;;;5.50;;
17662;SDS011;8950;56.892;15.090;2022-10-16T06:48:32;7.68;;;5.55;;
17662;SDS011;8950;56.892;15.090;2022-10-16T06:50:59;6.93;;;5.30;;
17662;SDS011;8950;56.892;15.090;2022-10-16T06:53:27;5.93;;;4.90;;
17662;SDS011;8950;56.892;15.090;2022-10-16T06:55:54;5.72;;;5.20;;
17662;SDS011;8950;56.892;15.090;2022-10-16T06:58:21;7.22;;;5.00;;
17662;SDS011;8950;56.892;15.090;2022-10-16T07:00:47;5.20;;;4.68;;
17662;SDS011;8950;56.892;15.090;2022-10-16T07:03:14;5.05;;;4.65;;
17662;SDS011;8950;56.892;15.090;2022-10-16T07:05:41;4.95;;;4.50;;
17662;SDS011;8950;56.892;15.090;2022-10-16T07:08:08;5.20;;;4.35;;
17662;SDS011;8950;56.892;15.090;2022-10-16T07:10:35;7.18;;;4.10;;
17662;SDS011;8950;56.892;15.090;2022-10-16T07:13:02;4.93;;;4.20;;
17662;SDS011;8950;56.892;15.090;2022-10-16T07:15:29;4.32;;;3.92;;
17662;SDS011;8950;56.892;15.090;2022-10-16T07:17:55;4.15;;;3.65;;
17662;SDS011;8950;56.892;15.090;2022-10-16T07:20:21;5.47;;;4.45;;
17662;SDS011;8950;56.892;15.090;2022-10-16T07:22:48;5.55;;;4.03;;
17662;SDS011;8950;56.892;15.090;2022-10-16T07:25:14;6.63;;;4.57;;
17662;SDS011;8950;56.892;15.090;2022-10-16T07:27:42;6.53;;;4.45;;
17662;SDS011;8950;56.892;15.090;2022-10-16T07:30:09;6.20;;;4.25;;
17662;SDS011;8950;56.892;15.090;2022-10-16T07:32:35;4.90;;;3.90;;
17662;SDS011;8950;56.892;15.090;2022-10-16T07:35:02;5.45;;;4.15;;
17662;SDS011;8950;56.892;15.090;2022-10-16T07:37:28;7.72;;;4.25;;
17662;SDS011;8950;56.892;15.090;2022-10-16T07:39:54;4.85;;;3.95;;
17662;SDS011;8950;56.892;15.090;2022-10-16T07:42:21;6.05;;;3.80;;
17662;SDS011;8950;56.892;15.090;2022-10-16T07:44:49;5.28;;;4.30;;
17662;SDS011;8950;56.892;15.090;2022-10-16T07:47:15;7.03;;;4.60;;
17662;SDS011;8950;56.892;15.090;2022-10-16T07:49:42;7.55;;;4.50;;
17662;SDS011;8950;56.892;15.090;2022-10-16T07:52:08;4.28;;;3.88;;
17662;SDS011;8950;56.892;15.090;2022-10-16T07:54:35;5.55;;;3.90;;
17662;SDS011;8950;56.892;15.090;2022-10-16T07:57:01;5.35;;;3.55;;
17662;SDS011;8950;56.892;15.090;2022-10-16T07:59:27;5.15;;;3.90;;
17662;SDS011;8950;56.892;15.090;2022-10-16T08:01:55;4.13;;;3.72;;
17662;SDS011;8950;56.892;15.090;2022-10-16T08:04:22;6.65;;;3.70;;
17662;SDS011;8950;56.892;15.090;2022-10-16T08:06:48;4.20;;;3.60;;
17662;SDS011;8950;56.892;15.090;2022-10-16T08:09:15;6.40;;;3.38;;
17662;SDS011;8950;56.892;15.090;2022-10-16T08:11:41;5.22;;;3.60;;
17662;SDS011;8950;56.892;15.090;2022-10-16T08:14:08;5.85;;;3.45;;
17662;SDS011;8950;56.892;15.090;2022-10-16T08:16:34;4.97;;;3.45;;
17662;SDS011;8950;56.892;15.090;2022-10-16T08:19:02;7.15;;;3.50;;
17662;SDS011;8950;56.892;15.090;2022-10-16T08:21:28;3.47;;;3.17;;
17662;SDS011;8950;56.892;15.090;2022-10-16T08:23:55;8.50;;;3.70;;
17662;SDS011;8950;56.892;15.090;2022-10-16T08:26:21;5.30;;;3.40;;
17662;SDS011;8950;56.892;15.090;2022-10-16T08:28:49;5.97;;;3.78;;
17662;SDS011;8950;56.892;15.090;2022-10-16T08:31:15;4.28;;;3.85;;
17662;SDS011;8950;56.892;15.090;2022-10-16T08:33:43;7.38;;;3.63;;
17662;SDS011;8950;56.892;15.090;2022-10-16T08:36:11;4.85;;;3.40;;
17662;SDS011;8950;56.892;15.090;2022-10-16T08:38:38;7.53;;;3.38;;
17662;SDS011;8950;56.892;15.090;2022-10-16T08:41:13;4.93;;;2.90;;
17662;SDS011;8950;56.892;15.090;2022-10-16T08:43:44;5.10;;;3.38;;
17662;SDS011;8950;56.892;15.090;2022-10-16T08:46:18;4.63;;;3.15;;
17662;SDS011;8950;56.892;15.090;2022-10-16T08:48:48;4.32;;;2.78;;
17662;SDS011;8950;56.892;15.090;2022-10-16T08:51:18;5.47;;;2.63;;
17662;SDS011;8950;56.892;15.090;2022-10-16T08:53:47;4.00;;;2.90;;
17662;SDS011;8950;56.892;15.090;2022-10-16T08:56:14;5.10;;;2.47;;
17662;SDS011;8950;56.892;15.090;2022-10-16T08:58:41;6.05;;;2.60;;
17662;SDS011;8950;56.892;15.090;2022-10-16T09:01:10;4.13;;;2.92;;
17662;SDS011;8950;56.892;15.090;2022-10-16T09:03:45;4.13;;;2.67;;
17662;SDS011;8950;56.892;15.090;2022-10-16T09:06:19;7.93;;;2.88;;
17662;SDS011;8950;56.892;15.090;2022-10-16T09:08:51;6.07;;;2.83;;
17662;SDS011;8950;56.892;15.090;2022-10-16T09:11:24;5.85;;;2.55;;
17662;SDS011;8950;56.892;15.090;2022-10-16T09:13:56;6.03;;;2.20;;
17662;SDS011;8950;56.892;15.090;2022-10-16T09:16:24;3.20;;;2.45;;
17662;SDS011;8950;56.892;15.090;2022-10-16T09:18:55;3.75;;;2.20;;
17662;SDS011;8950;56.892;15.090;2022-10-16T09:21:25;4.80;;;2.60;;
17662;SDS011;8950;56.892;15.090;2022-10-16T09:23:53;4.57;;;2.33;;
17662;SDS011;8950;56.892;15.090;2022-10-16T09:26:23;5.57;;;2.60;;
17662;SDS011;8950;56.892;15.090;2022-10-16T09:28:51;6.90;;;2.67;;
17662;SDS011;8950;56.892;15.090;2022-10-16T09:31:18;8.70;;;2.58;;
17662;SDS011;8950;56.892;15.090;2022-10-16T09:33:46;4.93;;;2.38;;
17662;SDS011;8950;56.892;15.090;2022-10-16T09:36:14;5.43;;;2.40;;
17662;SDS011;8950;56.892;15.090;2022-10-16T09:38:42;5.72;;;2.20;;
17662;SDS011;8950;56.892;15.090;2022-10-16T09:41:14;4.72;;;2.33;;
17662;SDS011;8950;56.892;15.090;2022-10-16T09:43:41;4.25;;;2.25;;
17662;SDS011;8950;56.892;15.090;2022-10-16T09:46:20;4.53;;;2.15;;
17662;SDS011;8950;56.892;15.090;2022-10-16T09:48:48;5.53;;;2.30;;
17662;SDS011;8950;56.892;15.090;2022-10-16T09:51:16;3.90;;;2.25;;
17662;SDS011;8950;56.892;15.090;2022-10-16T09:53:46;4.72;;;2.45;;
17662;SDS011;8950;56.892;15.090;2022-10-16T09:56:21;7.45;;;1.95;;
17662;SDS011;8950;56.892;15.090;2022-10-16T09:58:49;8.52;;;2.53;;
17662;SDS011;8950;56.892;15.090;2022-10-16T10:01:16;6.40;;;2.60;;
17662;SDS011;8950;56.892;15.090;2022-10-16T10:03:43;3.88;;;2.58;;
17662;SDS011;8950;56.892;15.090;2022-10-16T10:06:17;5.05;;;2.30;;
17662;SDS011;8950;56.892;15.090;2022-10-16T10:08:58;5.50;;;2.35;;
17662;SDS011;8950;56.892;15.090;2022-10-16T10:11:42;4.18;;;2.30;;
17662;SDS011;8950;56.892;15.090;2022-10-16T10:14:13;2.50;;;1.95;;
17662;SDS011;8950;56.892;15.090;2022-10-16T10:16:44;5.75;;;2.58;;
17662;SDS011;8950;56.892;15.090;2022-10-16T10:19:13;3.67;;;2.25;;
17662;SDS011;8950;56.892;15.090;2022-10-16T10:21:40;4.30;;;2.08;;
17662;SDS011;8950;56.892;15.090;2022-10-16T10:24:10;4.72;;;2.13;;
17662;SDS011;8950;56.892;15.090;2022-10-16T10:26:36;5.00;;;2.38;;
17662;SDS011;8950;56.892;15.090;2022-10-16T10:29:04;4.97;;;2.10;;
17662;SDS011;8950;56.892;15.090;2022-10-16T10:31:33;5.32;;;2.35;;
17662;SDS011;8950;56.892;15.090;2022-10-16T10:34:04;6.10;;;2.53;;
17662;SDS011;8950;56.892;15.090;2022-10-16T10:36:37;5.65;;;2.65;;
17662;SDS011;8950;56.892;15.090;2022-10-16T10:39:06;6.63;;;2.60;;
17662;SDS011;8950;56.892;15.090;2022-10-16T10:41:45;4.50;;;2.53;;
17662;SDS011;8950;56.892;15.090;2022-10-16T10:44:16;6.13;;;2.40;;
17662;SDS011;8950;56.892;15.090;2022-10-16T10:46:45;5.68;;;2.20;;
17662;SDS011;8950;56.892;15.090;2022-10-16T10:49:17;2.88;;;2.20;;
17662;SDS011;8950;56.892;15.090;2022-10-16T10:51:49;5.28;;;2.50;;
17662;SDS011;8950;56.892;15.090;2022-10-16T10:54:20;5.93;;;2.78;;
17662;SDS011;8950;56.892;15.090;2022-10-16T10:56:55;6.18;;;2.35;;
17662;SDS011;8950;56.892;15.090;2022-10-16T10:59:33;5.63;;;2.40;;
17662;SDS011;8950;56.892;15.090;2022-10-16T11:02:04;6.93;;;2.28;;
17662;SDS011;8950;56.892;15.090;2022-10-16T11:07:24;5.78;;;2.25;;
17662;SDS011;8950;56.892;15.090;2022-10-16T11:09:52;4.57;;;2.00;;
17662;SDS011;8950;56.892;15.090;2022-10-16T11:12:21;5.90;;;3.00;;
17662;SDS011;8950;56.892;15.090;2022-10-16T11:14:50;6.10;;;2.60;;
17662;SDS011;8950;56.892;15.090;2022-10-16T11:17:22;5.13;;;2.30;;
17662;SDS011;8950;56.892;15.090;2022-10-16T11:19:52;5.75;;;2.33;;
17662;SDS011;8950;56.892;15.090;2022-10-16T11:22:21;8.25;;;3.10;;
17662;SDS011;8950;56.892;15.090;2022-10-16T11:24:51;6.90;;;2.63;;
17662;SDS011;8950;56.892;15.090;2022-10-16T11:27:23;8.32;;;2.78;;
17662;SDS011;8950;56.892;15.090;2022-10-16T11:29:53;6.75;;;2.72;;
17662;SDS011;8950;56.892;15.090;2022-10-16T11:32:22;5.00;;;2.38;;
17662;SDS011;8950;56.892;15.090;2022-10-16T11:34:50;6.88;;;2.60;;
17662;SDS011;8950;56.892;15.090;2022-10-16T11:37:18;5.45;;;2.53;;
17662;SDS011;8950;56.892;15.090;2022-10-16T11:39:46;11.05;;;2.63;;
17662;SDS011;8950;56.892;15.090;2022-10-16T11:42:13;6.07;;;2.80;;
17662;SDS011;8950;56.892;15.090;2022-10-16T11:44:46;4.72;;;2.60;;
17662;SDS011;8950;56.892;15.090;2022-10-16T11:47:19;5.88;;;2.63;;
17662;SDS011;8950;56.892;15.090;2022-10-16T11:49:47;4.78;;;2.13;;
17662;SDS011;8950;56.892;15.090;2022-10-16T11:52:17;3.40;;;2.15;;
17662;SDS011;8950;56.892;15.090;2022-10-16T11:54:47;5.45;;;2.50;;
17662;SDS011;8950;56.892;15.090;2022-10-16T11:57:17;5.63;;;2.60;;
17662;SDS011;8950;56.892;15.090;2022-10-16T11:59:45;8.48;;;2.40;;
17662;SDS011;8950;56.892;15.090;2022-10-16T12:02:22;5.43;;;2.10;;
17662;SDS011;8950;56.892;15.090;2022-10-16T12:04:50;3.03;;;1.85;;
17662;SDS011;8950;56.892;15.090;2022-10-16T12:07:24;7.05;;;2.40;;
17662;SDS011;8950;56.892;15.090;2022-10-16T12:09:52;5.28;;;1.85;;
17662;SDS011;8950;56.892;15.090;2022-10-16T12:12:24;5.63;;;2.28;;
17662;SDS011;8950;56.892;15.090;2022-10-16T12:15:00;3.25;;;1.77;;
17662;SDS011;8950;56.892;15.090;2022-10-16T12:17:33;4.07;;;1.98;;
17662;SDS011;8950;56.892;15.090;2022-10-16T12:20:00;4.90;;;2.13;;
17662;SDS011;8950;56.892;15.090;2022-10-16T12:22:28;3.80;;;2.10;;
17662;SDS011;8950;56.892;15.090;2022-10-16T12:24:55;7.00;;;2.20;;
17662;SDS011;8950;56.892;15.090;2022-10-16T12:27:22;6.13;;;1.95;;
17662;SDS011;8950;56.892;15.090;2022-10-16T12:29:53;2.80;;;1.80;;
17662;SDS011;8950;56.892;15.090;2022-10-16T12:32:24;3.08;;;1.77;;
17662;SDS011;8950;56.892;15.090;2022-10-16T12:34:52;4.55;;;2.00;;
17662;SDS011;8950;56.892;15.090;2022-10-16T12:37:20;5.55;;;2.00;;
17662;SDS011;8950;56.892;15.090;2022-10-16T12:39:47;5.88;;;2.47;;
17662;SDS011;8950;56.892;15.090;2022-10-16T12:42:20;3.95;;;1.90;;
17662;SDS011;8950;56.892;15.090;2022-10-16T12:44:46;3.38;;;1.70;;
17662;SDS011;8950;56.892;15.090;2022-10-16T12:47:19;4.28;;;1.85;;
17662;SDS011;8950;56.892;15.090;2022-10-16T12:49:49;5.63;;;2.25;;
17662;SDS011;8950;56.892;15.090;2022-10-16T12:55:00;4.22;;;1.90;;
17662;SDS011;8950;56.892;15.090;2022-10-16T12:57:30;4.55;;;1.70;;
17662;SDS011;8950;56.892;15.090;2022-10-16T13:00:00;4.00;;;1.95;;
17662;SDS011;8950;56.892;15.090;2022-10-16T13:02:35;5.70;;;1.70;;
17662;SDS011;8950;56.892;15.090;2022-10-16T13:05:14;5.75;;;2.13;;
17662;SDS011;8950;56.892;15.090;2022-10-16T13:07:46;4.43;;;1.85;;
17662;SDS011;8950;56.892;15.090;2022-10-16T13:10:16;6.45;;;2.13;;
17662;SDS011;8950;56.892;15.090;2022-10-16T13:15:46;4.07;;;1.95;;
17662;SDS011;8950;56.892;15.090;2022-10-16T13:18:15;4.03;;;1.90;;
17662;SDS011;8950;56.892;15.090;2022-10-16T13:20:55;4.07;;;1.90;;
17662;SDS011;8950;56.892;15.090;2022-10-16T13:23:25;3.95;;;1.52;;
17662;SDS011;8950;56.892;15.090;2022-10-16T13:25:58;3.75;;;1.85;;
17662;SDS011;8950;56.892;15.090;2022-10-16T13:28:27;3.55;;;1.70;;
17662;SDS011;8950;56.892;15.090;2022-10-16T13:30:54;4.53;;;1.80;;
17662;SDS011;8950;56.892;15.090;2022-10-16T13:33:24;6.95;;;1.90;;
17662;SDS011;8950;56.892;15.090;2022-10-16T13:35:54;7.10;;;2.13;;
17662;SDS011;8950;56.892;15.090;2022-10-16T13:38:22;4.57;;;1.88;;
17662;SDS011;8950;56.892;15.090;2022-10-16T13:40:53;3.30;;;1.50;;
17662;SDS011;8950;56.892;15.090;2022-10-16T13:43:20;4.20;;;1.65;;
17662;SDS011;8950;56.892;15.090;2022-10-16T13:45:58;4.30;;;1.88;;
17662;SDS011;8950;56.892;15.090;2022-10-16T13:48:25;1.77;;;1.40;;
17662;SDS011;8950;56.892;15.090;2022-10-16T13:50:59;5.07;;;1.80;;
17662;SDS011;8950;56.892;15.090;2022-10-16T13:53:26;2.72;;;1.70;;
17662;SDS011;8950;56.892;15.090;2022-10-16T13:55:52;4.18;;;1.90;;
17662;SDS011;8950;56.892;15.090;2022-10-16T13:58:19;4.22;;;1.88;;
17662;SDS011;8950;56.892;15.090;2022-10-16T14:00:52;4.57;;;2.05;;
17662;SDS011;8950;56.892;15.090;2022-10-16T14:03:19;5.07;;;1.75;;
17662;SDS011;8950;56.892;15.090;2022-10-16T14:05:46;4.93;;;1.98;;
17662;SDS011;8950;56.892;15.090;2022-10-16T14:08:15;5.70;;;2.00;;
17662;SDS011;8950;56.892;15.090;2022-10-16T14:10:42;6.10;;;1.90;;
17662;SDS011;8950;56.892;15.090;2022-10-16T14:13:12;4.00;;;1.77;;
17662;SDS011;8950;56.892;15.090;2022-10-16T14:15:40;3.88;;;1.73;;
17662;SDS011;8950;56.892;15.090;2022-10-16T14:18:13;1.95;;;1.63;;
17662;SDS011;8950;56.892;15.090;2022-10-16T14:20:41;5.50;;;1.90;;
17662;SDS011;8950;56.892;15.090;2022-10-16T14:23:19;3.92;;;1.83;;
17662;SDS011;8950;56.892;15.090;2022-10-16T14:25:46;3.55;;;1.73;;
17662;SDS011;8950;56.892;15.090;2022-10-16T14:28:15;3.95;;;2.00;;
17662;SDS011;8950;56.892;15.090;2022-10-16T14:30:49;5.57;;;2.25;;
17662;SDS011;8950;56.892;15.090;2022-10-16T14:33:20;5.05;;;1.90;;
17662;SDS011;8950;56.892;15.090;2022-10-16T14:35:56;8.90;;;2.67;;
17662;SDS011;8950;56.892;15.090;2022-10-16T14:38:25;2.97;;;1.70;;
17662;SDS011;8950;56.892;15.090;2022-10-16T14:40:51;2.22;;;1.63;;
17662;SDS011;8950;56.892;15.090;2022-10-16T14:45:49;1.48;;;1.20;;
17662;SDS011;8950;56.892;15.090;2022-10-16T14:48:17;3.15;;;1.35;;
17662;SDS011;8950;56.892;15.090;2022-10-16T14:50:44;1.30;;;1.00;;
17662;SDS011;8950;56.892;15.090;2022-10-16T14:53:11;1.30;;;1.10;;
17662;SDS011;8950;56.892;15.090;2022-10-16T14:55:39;2.55;;;1.27;;
17662;SDS011;8950;56.892;15.090;2022-10-16T14:58:08;1.42;;;1.13;;
17662;SDS011;8950;56.892;15.090;2022-10-16T15:00:35;1.85;;;1.20;;